Fairgrounds, Louisiana
Current Conditions -  °F | °C
As of 5:56 PM on Sunday 23 Nov 2014 (Local Time) from KSHV Reporting Station
Few Clouds Few Clouds  
Wind Chill: 67°   Ceiling: Unl
Heat Index: 67°   Visibility: 10mi
Dew Point: 57°   Wind: 13mph
Humidity: 70%   Direction: 190°S
Pressure: 29.46"   Gusts: NA
Location:  32.4646°N, 93.8137°W
Report Text: KSHV 232356Z 19011KT 10SM FEW140 19/14 A2946 RMK AO2 SLP974 T01940139 10228 20189 53015
Loading
Personal Weather Stations






























Interactive Weather Map New forecast layout! Learn more

10-Day Weather Forecast

Advertisements
Track Severe Weather on mobile